sensor_id;sensor_type;location;lat;lon;timestamp;P1;durP1;ratioP1;P2;durP2;ratioP2
64938;SDS011;51453;47.738;7.420;2023-05-16T00:00:19;96.90;;;37.50;;
64938;SDS011;51453;47.738;7.420;2023-05-16T00:02:45;86.00;;;36.70;;
64938;SDS011;51453;47.738;7.420;2023-05-16T00:05:12;99.40;;;37.47;;
64938;SDS011;51453;47.738;7.420;2023-05-16T00:07:44;74.65;;;31.90;;
64938;SDS011;51453;47.738;7.420;2023-05-16T00:10:10;91.57;;;35.30;;
64938;SDS011;51453;47.738;7.420;2023-05-16T00:12:36;91.03;;;34.20;;
64938;SDS011;51453;47.738;7.420;2023-05-16T00:15:04;94.50;;;35.30;;
64938;SDS011;51453;47.738;7.420;2023-05-16T00:17:38;92.78;;;34.97;;
64938;SDS011;51453;47.738;7.420;2023-05-16T00:20:04;88.20;;;36.60;;
64938;SDS011;51453;47.738;7.420;2023-05-16T00:22:35;88.72;;;36.17;;
64938;SDS011;51453;47.738;7.420;2023-05-16T00:25:01;85.15;;;37.50;;
64938;SDS011;51453;47.738;7.420;2023-05-16T00:27:27;90.43;;;35.65;;
64938;SDS011;51453;47.738;7.420;2023-05-16T00:29:53;81.70;;;34.55;;
64938;SDS011;51453;47.738;7.420;2023-05-16T00:32:18;95.97;;;36.13;;
64938;SDS011;51453;47.738;7.420;2023-05-16T00:34:44;108.03;;;40.22;;
64938;SDS011;51453;47.738;7.420;2023-05-16T00:37:10;111.25;;;40.15;;
64938;SDS011;51453;47.738;7.420;2023-05-16T00:39:37;118.10;;;40.92;;
64938;SDS011;51453;47.738;7.420;2023-05-16T00:42:02;104.68;;;38.03;;
64938;SDS011;51453;47.738;7.420;2023-05-16T00:44:28;116.45;;;40.47;;
64938;SDS011;51453;47.738;7.420;2023-05-16T00:46:55;104.38;;;38.13;;
64938;SDS011;51453;47.738;7.420;2023-05-16T00:49:21;111.13;;;39.05;;
64938;SDS011;51453;47.738;7.420;2023-05-16T00:51:47;125.20;;;41.30;;
64938;SDS011;51453;47.738;7.420;2023-05-16T00:54:12;103.03;;;39.75;;
64938;SDS011;51453;47.738;7.420;2023-05-16T00:56:39;85.35;;;37.90;;
64938;SDS011;51453;47.738;7.420;2023-05-16T00:59:04;105.53;;;39.72;;
64938;SDS011;51453;47.738;7.420;2023-05-16T01:01:30;94.32;;;38.80;;
64938;SDS011;51453;47.738;7.420;2023-05-16T01:03:57;98.80;;;39.58;;
64938;SDS011;51453;47.738;7.420;2023-05-16T01:06:24;117.70;;;39.97;;
64938;SDS011;51453;47.738;7.420;2023-05-16T01:08:50;110.25;;;40.08;;
64938;SDS011;51453;47.738;7.420;2023-05-16T01:13:59;83.47;;;36.17;;
64938;SDS011;51453;47.738;7.420;2023-05-16T01:16:49;101.30;;;37.08;;
64938;SDS011;51453;47.738;7.420;2023-05-16T01:25:36;64.40;;;29.77;;
64938;SDS011;51453;47.738;7.420;2023-05-16T01:28:12;52.45;;;26.67;;
64938;SDS011;51453;47.738;7.420;2023-05-16T01:30:39;39.88;;;23.55;;
64938;SDS011;51453;47.738;7.420;2023-05-16T01:33:05;42.72;;;23.92;;
64938;SDS011;51453;47.738;7.420;2023-05-16T01:35:31;49.88;;;27.40;;
64938;SDS011;51453;47.738;7.420;2023-05-16T01:38:44;69.38;;;31.20;;
64938;SDS011;51453;47.738;7.420;2023-05-16T01:40:58;64.57;;;33.03;;
64938;SDS011;51453;47.738;7.420;2023-05-16T01:43:44;98.90;;;37.33;;
64938;SDS011;51453;47.738;7.420;2023-05-16T01:46:15;86.28;;;35.22;;
64938;SDS011;51453;47.738;7.420;2023-05-16T01:53:46;95.78;;;37.50;;
64938;SDS011;51453;47.738;7.420;2023-05-16T01:56:15;101.68;;;40.20;;
64938;SDS011;51453;47.738;7.420;2023-05-16T01:58:41;126.30;;;44.10;;
64938;SDS011;51453;47.738;7.420;2023-05-16T02:01:08;143.10;;;44.28;;
64938;SDS011;51453;47.738;7.420;2023-05-16T02:03:35;174.80;;;51.72;;
64938;SDS011;51453;47.738;7.420;2023-05-16T02:06:01;183.43;;;52.05;;
64938;SDS011;51453;47.738;7.420;2023-05-16T02:08:27;100.57;;;39.90;;
64938;SDS011;51453;47.738;7.420;2023-05-16T02:10:53;142.73;;;46.00;;
64938;SDS011;51453;47.738;7.420;2023-05-16T02:13:18;192.10;;;54.25;;
64938;SDS011;51453;47.738;7.420;2023-05-16T02:15:44;163.20;;;53.33;;
64938;SDS011;51453;47.738;7.420;2023-05-16T02:18:10;189.05;;;53.90;;
64938;SDS011;51453;47.738;7.420;2023-05-16T02:20:36;112.60;;;45.30;;
64938;SDS011;51453;47.738;7.420;2023-05-16T02:23:02;128.60;;;44.58;;
64938;SDS011;51453;47.738;7.420;2023-05-16T02:25:28;155.60;;;49.58;;
64938;SDS011;51453;47.738;7.420;2023-05-16T02:27:53;177.93;;;50.83;;
64938;SDS011;51453;47.738;7.420;2023-05-16T02:30:20;130.52;;;48.47;;
64938;SDS011;51453;47.738;7.420;2023-05-16T02:32:46;89.03;;;42.63;;
64938;SDS011;51453;47.738;7.420;2023-05-16T02:35:13;116.95;;;45.88;;
64938;SDS011;51453;47.738;7.420;2023-05-16T02:37:40;56.35;;;34.38;;
64938;SDS011;51453;47.738;7.420;2023-05-16T02:40:06;69.85;;;35.53;;
64938;SDS011;51453;47.738;7.420;2023-05-16T02:42:33;43.03;;;27.88;;
64938;SDS011;51453;47.738;7.420;2023-05-16T02:44:58;51.50;;;29.80;;
64938;SDS011;51453;47.738;7.420;2023-05-16T02:47:24;41.28;;;27.63;;
64938;SDS011;51453;47.738;7.420;2023-05-16T02:49:50;41.83;;;27.15;;
64938;SDS011;51453;47.738;7.420;2023-05-16T02:52:16;44.50;;;27.92;;
64938;SDS011;51453;47.738;7.420;2023-05-16T02:54:45;39.78;;;26.48;;
64938;SDS011;51453;47.738;7.420;2023-05-16T02:57:11;37.92;;;26.75;;
64938;SDS011;51453;47.738;7.420;2023-05-16T02:59:37;37.97;;;26.42;;
64938;SDS011;51453;47.738;7.420;2023-05-16T03:02:02;48.58;;;29.17;;
64938;SDS011;51453;47.738;7.420;2023-05-16T03:04:28;38.92;;;27.15;;
64938;SDS011;51453;47.738;7.420;2023-05-16T03:06:54;41.70;;;27.30;;
64938;SDS011;51453;47.738;7.420;2023-05-16T03:09:20;40.30;;;26.63;;
64938;SDS011;51453;47.738;7.420;2023-05-16T03:11:46;39.35;;;26.70;;
64938;SDS011;51453;47.738;7.420;2023-05-16T03:14:11;37.03;;;25.60;;
64938;SDS011;51453;47.738;7.420;2023-05-16T03:16:37;42.42;;;27.45;;
64938;SDS011;51453;47.738;7.420;2023-05-16T03:19:05;40.00;;;26.92;;
64938;SDS011;51453;47.738;7.420;2023-05-16T03:21:31;53.13;;;30.20;;
64938;SDS011;51453;47.738;7.420;2023-05-16T03:23:56;41.95;;;27.50;;
64938;SDS011;51453;47.738;7.420;2023-05-16T03:26:25;50.13;;;29.35;;
64938;SDS011;51453;47.738;7.420;2023-05-16T03:28:51;42.03;;;28.98;;
64938;SDS011;51453;47.738;7.420;2023-05-16T03:31:17;47.45;;;29.52;;
64938;SDS011;51453;47.738;7.420;2023-05-16T03:33:43;46.85;;;30.75;;
64938;SDS011;51453;47.738;7.420;2023-05-16T03:36:08;46.53;;;30.73;;
64938;SDS011;51453;47.738;7.420;2023-05-16T03:38:35;48.03;;;29.75;;
64938;SDS011;51453;47.738;7.420;2023-05-16T03:41:00;48.90;;;29.65;;
64938;SDS011;51453;47.738;7.420;2023-05-16T03:43:26;42.67;;;29.08;;
64938;SDS011;51453;47.738;7.420;2023-05-16T03:45:52;43.30;;;28.65;;
64938;SDS011;51453;47.738;7.420;2023-05-16T03:48:18;44.83;;;29.23;;
64938;SDS011;51453;47.738;7.420;2023-05-16T03:50:44;46.38;;;29.73;;
64938;SDS011;51453;47.738;7.420;2023-05-16T03:53:10;45.65;;;29.17;;
64938;SDS011;51453;47.738;7.420;2023-05-16T03:55:35;45.13;;;30.30;;
64938;SDS011;51453;47.738;7.420;2023-05-16T03:58:01;49.78;;;31.88;;
64938;SDS011;51453;47.738;7.420;2023-05-16T04:00:27;45.88;;;28.45;;
64938;SDS011;51453;47.738;7.420;2023-05-16T04:02:53;46.10;;;30.40;;
64938;SDS011;51453;47.738;7.420;2023-05-16T04:05:19;50.45;;;30.77;;
64938;SDS011;51453;47.738;7.420;2023-05-16T04:07:44;45.50;;;30.70;;
64938;SDS011;51453;47.738;7.420;2023-05-16T04:10:10;50.50;;;32.90;;
64938;SDS011;51453;47.738;7.420;2023-05-16T04:12:36;48.40;;;32.03;;
64938;SDS011;51453;47.738;7.420;2023-05-16T04:15:02;48.47;;;32.33;;
64938;SDS011;51453;47.738;7.420;2023-05-16T04:17:29;55.50;;;33.80;;
64938;SDS011;51453;47.738;7.420;2023-05-16T04:19:55;54.40;;;33.10;;
64938;SDS011;51453;47.738;7.420;2023-05-16T04:22:21;51.22;;;32.03;;
64938;SDS011;51453;47.738;7.420;2023-05-16T04:24:47;51.30;;;33.05;;
64938;SDS011;51453;47.738;7.420;2023-05-16T04:27:13;45.90;;;30.80;;
64938;SDS011;51453;47.738;7.420;2023-05-16T04:29:38;49.75;;;31.80;;
64938;SDS011;51453;47.738;7.420;2023-05-16T04:32:04;52.58;;;32.50;;
64938;SDS011;51453;47.738;7.420;2023-05-16T04:34:31;51.85;;;31.73;;
64938;SDS011;51453;47.738;7.420;2023-05-16T04:36:58;50.63;;;31.25;;
64938;SDS011;51453;47.738;7.420;2023-05-16T04:39:24;50.45;;;31.67;;
64938;SDS011;51453;47.738;7.420;2023-05-16T04:41:50;52.70;;;32.67;;
64938;SDS011;51453;47.738;7.420;2023-05-16T04:44:16;52.38;;;32.55;;
64938;SDS011;51453;47.738;7.420;2023-05-16T04:46:41;48.85;;;32.17;;
64938;SDS011;51453;47.738;7.420;2023-05-16T04:49:07;51.03;;;31.92;;
64938;SDS011;51453;47.738;7.420;2023-05-16T04:51:33;51.88;;;32.20;;
64938;SDS011;51453;47.738;7.420;2023-05-16T04:53:59;49.25;;;32.50;;
64938;SDS011;51453;47.738;7.420;2023-05-16T04:56:24;54.60;;;33.22;;
64938;SDS011;51453;47.738;7.420;2023-05-16T04:58:53;51.65;;;32.63;;
64938;SDS011;51453;47.738;7.420;2023-05-16T05:01:18;54.92;;;33.25;;
64938;SDS011;51453;47.738;7.420;2023-05-16T05:03:44;56.22;;;33.63;;
64938;SDS011;51453;47.738;7.420;2023-05-16T05:06:10;51.30;;;32.75;;
64938;SDS011;51453;47.738;7.420;2023-05-16T05:08:35;57.65;;;33.63;;
64938;SDS011;51453;47.738;7.420;2023-05-16T05:11:01;57.55;;;33.75;;
64938;SDS011;51453;47.738;7.420;2023-05-16T05:13:27;58.53;;;34.05;;
64938;SDS011;51453;47.738;7.420;2023-05-16T05:15:52;50.60;;;32.85;;
64938;SDS011;51453;47.738;7.420;2023-05-16T05:18:18;56.60;;;33.92;;
64938;SDS011;51453;47.738;7.420;2023-05-16T05:20:43;57.40;;;35.53;;
64938;SDS011;51453;47.738;7.420;2023-05-16T05:23:09;53.72;;;32.90;;
64938;SDS011;51453;47.738;7.420;2023-05-16T05:25:35;55.85;;;33.25;;
64938;SDS011;51453;47.738;7.420;2023-05-16T05:28:01;54.97;;;34.42;;
64938;SDS011;51453;47.738;7.420;2023-05-16T05:30:28;58.95;;;35.80;;
64938;SDS011;51453;47.738;7.420;2023-05-16T05:32:53;60.55;;;35.88;;
64938;SDS011;51453;47.738;7.420;2023-05-16T05:35:19;59.58;;;34.10;;
64938;SDS011;51453;47.738;7.420;2023-05-16T05:37:45;58.70;;;34.72;;
64938;SDS011;51453;47.738;7.420;2023-05-16T05:40:10;62.33;;;35.15;;
64938;SDS011;51453;47.738;7.420;2023-05-16T05:42:36;56.95;;;34.10;;
64938;SDS011;51453;47.738;7.420;2023-05-16T05:45:02;60.30;;;34.90;;
64938;SDS011;51453;47.738;7.420;2023-05-16T05:47:28;60.05;;;34.05;;
64938;SDS011;51453;47.738;7.420;2023-05-16T05:49:54;57.15;;;32.72;;
64938;SDS011;51453;47.738;7.420;2023-05-16T05:52:20;59.67;;;33.17;;
64938;SDS011;51453;47.738;7.420;2023-05-16T05:54:46;56.08;;;32.90;;
64938;SDS011;51453;47.738;7.420;2023-05-16T05:57:12;57.05;;;32.45;;
64938;SDS011;51453;47.738;7.420;2023-05-16T05:59:38;56.47;;;33.30;;
64938;SDS011;51453;47.738;7.420;2023-05-16T06:02:03;54.05;;;32.45;;
64938;SDS011;51453;47.738;7.420;2023-05-16T06:04:29;53.03;;;30.55;;
64938;SDS011;51453;47.738;7.420;2023-05-16T06:06:55;53.10;;;31.70;;
64938;SDS011;51453;47.738;7.420;2023-05-16T06:09:21;50.47;;;31.17;;
64938;SDS011;51453;47.738;7.420;2023-05-16T06:11:46;55.25;;;32.83;;
64938;SDS011;51453;47.738;7.420;2023-05-16T06:14:13;54.88;;;32.22;;
64938;SDS011;51453;47.738;7.420;2023-05-16T06:16:42;58.58;;;32.25;;
64938;SDS011;51453;47.738;7.420;2023-05-16T06:19:08;56.50;;;33.42;;
64938;SDS011;51453;47.738;7.420;2023-05-16T06:21:34;57.92;;;33.85;;
64938;SDS011;51453;47.738;7.420;2023-05-16T06:23:59;57.42;;;33.58;;
64938;SDS011;51453;47.738;7.420;2023-05-16T06:26:25;52.33;;;31.35;;
64938;SDS011;51453;47.738;7.420;2023-05-16T06:28:50;48.97;;;31.13;;
64938;SDS011;51453;47.738;7.420;2023-05-16T06:31:16;55.75;;;33.30;;
64938;SDS011;51453;47.738;7.420;2023-05-16T06:33:42;51.63;;;32.42;;
64938;SDS011;51453;47.738;7.420;2023-05-16T06:36:07;52.80;;;32.65;;
64938;SDS011;51453;47.738;7.420;2023-05-16T06:38:33;51.22;;;32.45;;
64938;SDS011;51453;47.738;7.420;2023-05-16T06:40:58;58.80;;;33.35;;
64938;SDS011;51453;47.738;7.420;2023-05-16T06:43:24;56.38;;;32.85;;
64938;SDS011;51453;47.738;7.420;2023-05-16T06:45:50;54.35;;;32.60;;
64938;SDS011;51453;47.738;7.420;2023-05-16T06:48:16;53.38;;;32.20;;
64938;SDS011;51453;47.738;7.420;2023-05-16T06:50:45;52.22;;;32.33;;
64938;SDS011;51453;47.738;7.420;2023-05-16T06:53:15;55.17;;;32.63;;
64938;SDS011;51453;47.738;7.420;2023-05-16T06:55:42;52.58;;;30.63;;
64938;SDS011;51453;47.738;7.420;2023-05-16T06:58:07;54.10;;;31.52;;
64938;SDS011;51453;47.738;7.420;2023-05-16T07:00:33;54.83;;;31.40;;
64938;SDS011;51453;47.738;7.420;2023-05-16T07:02:58;49.58;;;30.52;;
64938;SDS011;51453;47.738;7.420;2023-05-16T07:05:24;49.40;;;29.98;;
64938;SDS011;51453;47.738;7.420;2023-05-16T07:07:50;48.97;;;30.75;;
64938;SDS011;51453;47.738;7.420;2023-05-16T07:10:15;50.63;;;31.30;;
64938;SDS011;51453;47.738;7.420;2023-05-16T07:12:41;49.88;;;30.02;;
64938;SDS011;51453;47.738;7.420;2023-05-16T07:15:07;47.00;;;28.58;;
64938;SDS011;51453;47.738;7.420;2023-05-16T07:17:33;50.25;;;29.55;;
64938;SDS011;51453;47.738;7.420;2023-05-16T07:19:59;53.35;;;31.75;;
64938;SDS011;51453;47.738;7.420;2023-05-16T07:22:25;52.30;;;30.25;;
64938;SDS011;51453;47.738;7.420;2023-05-16T07:24:50;53.30;;;31.05;;
64938;SDS011;51453;47.738;7.420;2023-05-16T07:27:18;47.75;;;28.90;;
64938;SDS011;51453;47.738;7.420;2023-05-16T07:29:44;49.58;;;28.92;;
64938;SDS011;51453;47.738;7.420;2023-05-16T07:32:09;43.45;;;27.45;;
64938;SDS011;51453;47.738;7.420;2023-05-16T07:34:35;41.95;;;27.00;;
64938;SDS011;51453;47.738;7.420;2023-05-16T07:37:01;49.70;;;28.95;;
64938;SDS011;51453;47.738;7.420;2023-05-16T07:39:27;47.30;;;26.15;;
64938;SDS011;51453;47.738;7.420;2023-05-16T07:41:52;49.13;;;27.20;;
64938;SDS011;51453;47.738;7.420;2023-05-16T07:44:18;46.25;;;26.30;;
64938;SDS011;51453;47.738;7.420;2023-05-16T07:46:44;47.97;;;27.58;;
64938;SDS011;51453;47.738;7.420;2023-05-16T07:49:09;46.53;;;27.52;;
64938;SDS011;51453;47.738;7.420;2023-05-16T07:51:35;45.40;;;26.83;;
64938;SDS011;51453;47.738;7.420;2023-05-16T07:54:01;45.58;;;26.70;;
64938;SDS011;51453;47.738;7.420;2023-05-16T07:56:28;45.20;;;25.85;;
64938;SDS011;51453;47.738;7.420;2023-05-16T07:58:53;49.65;;;26.67;;
64938;SDS011;51453;47.738;7.420;2023-05-16T08:01:19;50.97;;;27.45;;
64938;SDS011;51453;47.738;7.420;2023-05-16T08:03:45;48.35;;;27.50;;
64938;SDS011;51453;47.738;7.420;2023-05-16T08:06:10;47.58;;;27.00;;
64938;SDS011;51453;47.738;7.420;2023-05-16T08:08:36;47.08;;;26.92;;
64938;SDS011;51453;47.738;7.420;2023-05-16T08:11:02;54.33;;;29.02;;
64938;SDS011;51453;47.738;7.420;2023-05-16T08:13:29;57.67;;;29.65;;
64938;SDS011;51453;47.738;7.420;2023-05-16T08:15:55;59.90;;;29.75;;
64938;SDS011;51453;47.738;7.420;2023-05-16T08:18:21;53.10;;;27.00;;
64938;SDS011;51453;47.738;7.420;2023-05-16T08:20:46;59.33;;;29.83;;
64938;SDS011;51453;47.738;7.420;2023-05-16T08:23:12;49.33;;;27.38;;
64938;SDS011;51453;47.738;7.420;2023-05-16T08:25:38;53.72;;;28.88;;
64938;SDS011;51453;47.738;7.420;2023-05-16T08:28:04;57.17;;;28.35;;
64938;SDS011;51453;47.738;7.420;2023-05-16T08:30:29;59.70;;;30.02;;
64938;SDS011;51453;47.738;7.420;2023-05-16T08:32:55;53.83;;;29.60;;
64938;SDS011;51453;47.738;7.420;2023-05-16T08:35:21;54.20;;;28.98;;
64938;SDS011;51453;47.738;7.420;2023-05-16T08:37:46;53.20;;;26.90;;
64938;SDS011;51453;47.738;7.420;2023-05-16T08:40:12;50.85;;;27.73;;
64938;SDS011;51453;47.738;7.420;2023-05-16T08:42:39;49.30;;;27.40;;
64938;SDS011;51453;47.738;7.420;2023-05-16T08:45:08;58.42;;;28.80;;
64938;SDS011;51453;47.738;7.420;2023-05-16T08:47:34;51.17;;;26.45;;
64938;SDS011;51453;47.738;7.420;2023-05-16T08:52:33;46.30;;;25.55;;
64938;SDS011;51453;47.738;7.420;2023-05-16T08:55:02;42.05;;;24.58;;
64938;SDS011;51453;47.738;7.420;2023-05-16T08:57:35;42.13;;;24.85;;
64938;SDS011;51453;47.738;7.420;2023-05-16T09:00:02;43.55;;;23.13;;
64938;SDS011;51453;47.738;7.420;2023-05-16T09:02:36;44.00;;;23.38;;
64938;SDS011;51453;47.738;7.420;2023-05-16T09:05:06;46.30;;;26.00;;
64938;SDS011;51453;47.738;7.420;2023-05-16T09:07:33;41.13;;;22.20;;
64938;SDS011;51453;47.738;7.420;2023-05-16T09:09:59;37.20;;;19.42;;
64938;SDS011;51453;47.738;7.420;2023-05-16T09:12:24;34.22;;;20.25;;
64938;SDS011;51453;47.738;7.420;2023-05-16T09:14:50;35.35;;;20.92;;
64938;SDS011;51453;47.738;7.420;2023-05-16T09:17:16;38.88;;;21.80;;
64938;SDS011;51453;47.738;7.420;2023-05-16T09:19:42;29.65;;;19.15;;
64938;SDS011;51453;47.738;7.420;2023-05-16T09:22:12;41.30;;;21.27;;
64938;SDS011;51453;47.738;7.420;2023-05-16T09:24:39;40.05;;;19.98;;
64938;SDS011;51453;47.738;7.420;2023-05-16T09:27:06;31.15;;;19.23;;
64938;SDS011;51453;47.738;7.420;2023-05-16T09:29:42;38.63;;;21.42;;
64938;SDS011;51453;47.738;7.420;2023-05-16T09:34:52;37.47;;;20.17;;
64938;SDS011;51453;47.738;7.420;2023-05-16T09:37:18;45.55;;;22.05;;
64938;SDS011;51453;47.738;7.420;2023-05-16T09:39:49;38.65;;;20.85;;
64938;SDS011;51453;47.738;7.420;2023-05-16T09:42:16;35.67;;;20.05;;
64938;SDS011;51453;47.738;7.420;2023-05-16T09:44:50;31.65;;;19.00;;
64938;SDS011;51453;47.738;7.420;2023-05-16T09:47:17;35.38;;;19.77;;
64938;SDS011;51453;47.738;7.420;2023-05-16T09:49:43;35.10;;;19.70;;
64938;SDS011;51453;47.738;7.420;2023-05-16T09:52:11;31.08;;;18.75;;
64938;SDS011;51453;47.738;7.420;2023-05-16T09:54:40;27.92;;;16.33;;
64938;SDS011;51453;47.738;7.420;2023-05-16T09:57:06;31.75;;;18.23;;
64938;SDS011;51453;47.738;7.420;2023-05-16T09:59:35;28.15;;;16.25;;
64938;SDS011;51453;47.738;7.420;2023-05-16T10:02:02;26.08;;;16.88;;
64938;SDS011;51453;47.738;7.420;2023-05-16T10:04:33;32.10;;;16.37;;
64938;SDS011;51453;47.738;7.420;2023-05-16T10:07:01;21.88;;;13.85;;
64938;SDS011;51453;47.738;7.420;2023-05-16T10:09:28;25.15;;;14.73;;
64938;SDS011;51453;47.738;7.420;2023-05-16T10:12:02;25.27;;;14.17;;
64938;SDS011;51453;47.738;7.420;2023-05-16T10:14:40;25.50;;;14.57;;
64938;SDS011;51453;47.738;7.420;2023-05-16T10:17:06;25.77;;;14.48;;
64938;SDS011;51453;47.738;7.420;2023-05-16T10:19:36;27.73;;;14.17;;
64938;SDS011;51453;47.738;7.420;2023-05-16T10:22:04;26.17;;;14.65;;
64938;SDS011;51453;47.738;7.420;2023-05-16T10:27:28;20.13;;;12.32;;
64938;SDS011;51453;47.738;7.420;2023-05-16T10:29:55;23.95;;;14.18;;
64938;SDS011;51453;47.738;7.420;2023-05-16T10:32:22;18.85;;;13.02;;
64938;SDS011;51453;47.738;7.420;2023-05-16T10:34:51;23.63;;;12.93;;
64938;SDS011;51453;47.738;7.420;2023-05-16T10:37:19;20.02;;;12.80;;
64938;SDS011;51453;47.738;7.420;2023-05-16T10:39:45;21.50;;;12.73;;
64938;SDS011;51453;47.738;7.420;2023-05-16T10:42:11;21.13;;;12.50;;
64938;SDS011;51453;47.738;7.420;2023-05-16T10:44:42;20.67;;;12.20;;
64938;SDS011;51453;47.738;7.420;2023-05-16T10:47:08;21.83;;;13.05;;
64938;SDS011;51453;47.738;7.420;2023-05-16T10:49:33;19.63;;;11.48;;
64938;SDS011;51453;47.738;7.420;2023-05-16T10:52:10;19.98;;;11.88;;
64938;SDS011;51453;47.738;7.420;2023-05-16T10:54:40;19.45;;;11.60;;
64938;SDS011;51453;47.738;7.420;2023-05-16T10:57:08;19.05;;;11.77;;
64938;SDS011;51453;47.738;7.420;2023-05-16T10:59:49;18.52;;;10.43;;
64938;SDS011;51453;47.738;7.420;2023-05-16T11:02:48;17.30;;;10.23;;
64938;SDS011;51453;47.738;7.420;2023-05-16T11:05:07;16.80;;;9.68;;
64938;SDS011;51453;47.738;7.420;2023-05-16T11:07:41;14.98;;;9.63;;
64938;SDS011;51453;47.738;7.420;2023-05-16T11:10:08;17.30;;;8.52;;
64938;SDS011;51453;47.738;7.420;2023-05-16T11:12:46;12.23;;;7.43;;
64938;SDS011;51453;47.738;7.420;2023-05-16T11:15:20;8.70;;;6.78;;
64938;SDS011;51453;47.738;7.420;2023-05-16T11:17:53;10.68;;;7.18;;
64938;SDS011;51453;47.738;7.420;2023-05-16T11:20:30;10.43;;;6.43;;
64938;SDS011;51453;47.738;7.420;2023-05-16T11:25:45;10.40;;;5.70;;
64938;SDS011;51453;47.738;7.420;2023-05-16T11:28:13;9.85;;;5.70;;
64938;SDS011;51453;47.738;7.420;2023-05-16T11:30:57;9.13;;;5.50;;
64938;SDS011;51453;47.738;7.420;2023-05-16T11:33:23;6.53;;;5.45;;
64938;SDS011;51453;47.738;7.420;2023-05-16T11:36:02;6.00;;;4.97;;
64938;SDS011;51453;47.738;7.420;2023-05-16T11:38:29;5.30;;;4.25;;
64938;SDS011;51453;47.738;7.420;2023-05-16T11:41:03;4.88;;;4.18;;
64938;SDS011;51453;47.738;7.420;2023-05-16T11:43:40;6.13;;;4.22;;
64938;SDS011;51453;47.738;7.420;2023-05-16T11:46:09;4.53;;;3.80;;
64938;SDS011;51453;47.738;7.420;2023-05-16T11:48:36;8.70;;;4.68;;
64938;SDS011;51453;47.738;7.420;2023-05-16T11:51:02;5.30;;;3.90;;
64938;SDS011;51453;47.738;7.420;2023-05-16T11:53:28;5.97;;;4.03;;
64938;SDS011;51453;47.738;7.420;2023-05-16T11:55:53;6.22;;;4.68;;
64938;SDS011;51453;47.738;7.420;2023-05-16T11:58:19;5.20;;;4.28;;
64938;SDS011;51453;47.738;7.420;2023-05-16T12:00:49;5.18;;;4.63;;
64938;SDS011;51453;47.738;7.420;2023-05-16T12:05:52;9.82;;;4.95;;
64938;SDS011;51453;47.738;7.420;2023-05-16T12:08:19;15.30;;;4.40;;
64938;SDS011;51453;47.738;7.420;2023-05-16T12:10:52;7.95;;;4.45;;
64938;SDS011;51453;47.738;7.420;2023-05-16T12:13:18;4.93;;;3.70;;
64938;SDS011;51453;47.738;7.420;2023-05-16T12:15:46;5.35;;;3.92;;
64938;SDS011;51453;47.738;7.420;2023-05-16T12:18:13;5.25;;;4.28;;
64938;SDS011;51453;47.738;7.420;2023-05-16T12:20:39;5.72;;;4.10;;
64938;SDS011;51453;47.738;7.420;2023-05-16T12:23:11;9.40;;;4.13;;
64938;SDS011;51453;47.738;7.420;2023-05-16T12:25:37;4.25;;;3.58;;
64938;SDS011;51453;47.738;7.420;2023-05-16T12:28:10;6.47;;;3.90;;
64938;SDS011;51453;47.738;7.420;2023-05-16T12:30:39;4.28;;;3.88;;
64938;SDS011;51453;47.738;7.420;2023-05-16T12:33:07;4.47;;;3.67;;
64938;SDS011;51453;47.738;7.420;2023-05-16T12:35:34;6.10;;;4.10;;
64938;SDS011;51453;47.738;7.420;2023-05-16T12:38:03;3.80;;;3.40;;
64938;SDS011;51453;47.738;7.420;2023-05-16T12:40:31;4.50;;;3.33;;
64938;SDS011;51453;47.738;7.420;2023-05-16T12:42:57;3.67;;;3.25;;
64938;SDS011;51453;47.738;7.420;2023-05-16T12:45:23;4.50;;;3.10;;
64938;SDS011;51453;47.738;7.420;2023-05-16T12:47:51;3.90;;;3.47;;
64938;SDS011;51453;47.738;7.420;2023-05-16T12:50:16;4.65;;;3.55;;
64938;SDS011;51453;47.738;7.420;2023-05-16T12:52:49;3.17;;;2.88;;
64938;SDS011;51453;47.738;7.420;2023-05-16T12:55:16;4.20;;;3.47;;
64938;SDS011;51453;47.738;7.420;2023-05-16T12:57:42;4.18;;;2.92;;
64938;SDS011;51453;47.738;7.420;2023-05-16T13:00:10;3.33;;;3.03;;
64938;SDS011;51453;47.738;7.420;2023-05-16T13:02:36;2.70;;;2.50;;
64938;SDS011;51453;47.738;7.420;2023-05-16T13:05:03;3.30;;;2.47;;
64938;SDS011;51453;47.738;7.420;2023-05-16T13:07:29;4.18;;;2.47;;
64938;SDS011;51453;47.738;7.420;2023-05-16T13:09:55;4.47;;;2.63;;
64938;SDS011;51453;47.738;7.420;2023-05-16T13:12:20;3.30;;;2.20;;
64938;SDS011;51453;47.738;7.420;2023-05-16T13:14:50;2.17;;;1.98;;
64938;SDS011;51453;47.738;7.420;2023-05-16T13:17:16;1.90;;;1.80;;
64938;SDS011;51453;47.738;7.420;2023-05-16T13:19:42;2.80;;;2.03;;
64938;SDS011;51453;47.738;7.420;2023-05-16T13:22:08;2.85;;;1.90;;
64938;SDS011;51453;47.738;7.420;2023-05-16T13:24:33;5.97;;;2.00;;
64938;SDS011;51453;47.738;7.420;2023-05-16T13:26:59;5.30;;;2.00;;
64938;SDS011;51453;47.738;7.420;2023-05-16T13:29:25;1.92;;;1.83;;
64938;SDS011;51453;47.738;7.420;2023-05-16T13:31:50;4.05;;;1.90;;
64938;SDS011;51453;47.738;7.420;2023-05-16T13:34:16;3.42;;;1.98;;
64938;SDS011;51453;47.738;7.420;2023-05-16T13:36:42;4.28;;;2.35;;
64938;SDS011;51453;47.738;7.420;2023-05-16T13:39:07;3.15;;;2.00;;
64938;SDS011;51453;47.738;7.420;2023-05-16T13:41:33;2.75;;;2.10;;
64938;SDS011;51453;47.738;7.420;2023-05-16T13:44:02;3.03;;;1.80;;
64938;SDS011;51453;47.738;7.420;2023-05-16T13:46:27;2.88;;;1.90;;
64938;SDS011;51453;47.738;7.420;2023-05-16T13:48:53;2.20;;;2.00;;
64938;SDS011;51453;47.738;7.420;2023-05-16T13:51:19;2.85;;;1.50;;
64938;SDS011;51453;47.738;7.420;2023-05-16T13:53:45;1.60;;;1.50;;
64938;SDS011;51453;47.738;7.420;2023-05-16T13:56:11;1.45;;;1.35;;
64938;SDS011;51453;47.738;7.420;2023-05-16T13:58:36;2.92;;;1.70;;
64938;SDS011;51453;47.738;7.420;2023-05-16T14:01:02;2.03;;;1.48;;
64938;SDS011;51453;47.738;7.420;2023-05-16T14:03:27;3.08;;;1.40;;
64938;SDS011;51453;47.738;7.420;2023-05-16T14:05:53;1.58;;;1.10;;
64938;SDS011;51453;47.738;7.420;2023-05-16T14:08:19;1.73;;;1.30;;
64938;SDS011;51453;47.738;7.420;2023-05-16T14:10:45;2.20;;;1.35;;
64938;SDS011;51453;47.738;7.420;2023-05-16T14:13:10;1.50;;;1.38;;
64938;SDS011;51453;47.738;7.420;2023-05-16T14:15:39;1.88;;;1.20;;
64938;SDS011;51453;47.738;7.420;2023-05-16T14:18:05;3.13;;;1.35;;
64938;SDS011;51453;47.738;7.420;2023-05-16T14:20:31;2.60;;;1.15;;
64938;SDS011;51453;47.738;7.420;2023-05-16T14:22:57;1.40;;;1.30;;
64938;SDS011;51453;47.738;7.420;2023-05-16T14:25:23;1.90;;;1.73;;
64938;SDS011;51453;47.738;7.420;2023-05-16T14:27:48;4.68;;;1.50;;
64938;SDS011;51453;47.738;7.420;2023-05-16T14:30:15;2.25;;;1.40;;
64938;SDS011;51453;47.738;7.420;2023-05-16T14:32:41;3.85;;;1.40;;
64938;SDS011;51453;47.738;7.420;2023-05-16T14:35:07;3.22;;;1.60;;
64938;SDS011;51453;47.738;7.420;2023-05-16T14:37:35;2.28;;;1.30;;
64938;SDS011;51453;47.738;7.420;2023-05-16T14:40:01;3.72;;;1.40;;
64938;SDS011;51453;47.738;7.420;2023-05-16T14:42:29;2.90;;;1.50;;
64938;SDS011;51453;47.738;7.420;2023-05-16T14:44:55;1.58;;;1.48;;
64938;SDS011;51453;47.738;7.420;2023-05-16T14:47:20;5.05;;;1.73;;
64938;SDS011;51453;47.738;7.420;2023-05-16T14:49:47;3.92;;;1.80;;
64938;SDS011;51453;47.738;7.420;2023-05-16T14:52:12;2.42;;;1.88;;